This is the latest recevied weather packets stored in our database for station/object SQ9PDE-13. If no packets are shown the sender has not sent any weather packets the latest 10 day(s).
| Time | Temp. | Humidity | Pressure | Rain* | Wind** | Luminosity | Snow |
|---|---|---|---|---|---|---|---|
| 1777207420 | 11.67° C | 40% | 1020.9 hPa | - | - | - | - |
| 1777207119 | 10.56° C | 39% | 1020.9 hPa | - | - | - | - |
| 1777206819 | 10° C | 42% | 1021.2 hPa | - | - | - | - |
| 1777206518 | 10.56° C | 39% | 1020.9 hPa | - | - | - | - |
| 1777206218 | 10.56° C | 39% | 1020.9 hPa | - | - | - | - |
| 1777205917 | 11.11° C | 40% | 1020.9 hPa | - | - | - | - |
| 1777205617 | 10.56° C | 40% | 1021 hPa | - | - | - | - |
| 1777205316 | 11.11° C | 39% | 1020.6 hPa | - | - | - | - |
| 1777205016 | 11.67° C | 39% | 1020.5 hPa | - | - | - | - |
| 1777204715 | 11.67° C | 39% | 1020.5 hPa | - | - | - | - |
| 1777204415 | 12.22° C | 41% | 1020.5 hPa | - | - | - | - |
| 1777204114 | 12.22° C | 40% | 1020.5 hPa | - | - | - | - |
| 1777203814 | 12.78° C | 39% | 1020.3 hPa | - | - | - | - |
| 1777203513 | 12.22° C | 39% | 1020.3 hPa | - | - | - | - |
| 1777203213 | 10.56° C | 41% | 1020.6 hPa | - | - | - | - |
| 1777202912 | 11.67° C | 40% | 1020.2 hPa | - | - | - | - |
| 1777202612 | 12.22° C | 42% | 1020 hPa | - | - | - | - |
| 1777202311 | 11.11° C | 43% | 1020.4 hPa | - | - | - | - |
| 1777202011 | 11.67° C | 45% | 1020.2 hPa | - | - | - | - |
| 1777201710 | 11.11° C | 44% | 1020.3 hPa | - | - | - | - |
| 1777201410 | 10.56° C | 43% | 1020.3 hPa | - | - | - | - |
| 1777201109 | 10.56° C | 45% | 1020.4 hPa | - | - | - | - |
| 1777200809 | 11.11° C | 45% | 1020.2 hPa | - | - | - | - |
| 1777200508 | 11.11° C | 44% | 1020.2 hPa | - | - | - | - |
| 1777200207 | 11.11° C | 45% | 1020 hPa | - | - | - | - |
* Rain since midnight (hover to see other rain measurements)
** Current wind speed in m/s (hover to see current wind gust speed)